Ottumwa, IA

2:09 PM CDT on September 01, 2014 (GMT -0500)
East | Change Station
CLOSE
Current Station
Personal Weather Station
Location: Ottumwa, IA
Elevation: 833 ft
Nearby Weather Stations

Elev 833 ft 41.03 °N, 92.40 °W | Updated 5 seconds ago

Mostly Cloudy
Mostly Cloudy
83.1 °F
Feels Like 88 °F
N
3.8
Wind Variable Wind from SW
Gusts 7.6 mph

Today
High -- | Low -- °F
--% Chance of Precip.
Yesterday
High -- | Low -- °F
Precip. -- in
6:36 AM 7:42 PM
Waxing Crescent, 43% visible
Pressure 29.78 in
Visibility 10.0 miles
Clouds Mostly Cloudy 3200 ft
Heat Index 88 °F
Dew Point 71 °F
Humidity 67%
Rainfall 0.74 in
Snow Depth Not available.
UV 5 out of 12
Pollen 5.60 out of 12
Air Quality Not available.
Flu Activity Not available.
METAR KOTM 011853Z AUTO 27012G18KT 10SM BKN032 25/19 A2980 RMK AO2 SLP085 T02500189

More Conditions Fewer Conditions

Pressure 29.78 in
Visibility 10.0 miles
Clouds Mostly Cloudy 3200 ft
Heat Index 88 °F
Dew Point 71 °F
Humidity 67%
Rainfall 0.74 in
Snow Depth Not available.
UV 5 out of 12
Pollen 5.60 out of 12
Air Quality Not available.
Flu Activity Not available.
METAR KOTM 011853Z AUTO 27012G18KT 10SM BKN032 25/19 A2980 RMK AO2 SLP085 T02500189

More Conditions Fewer Conditions

10-Day Weather Forecast

Almanac

Astronomy

Sep. 01, 2014 Rise Set
Actual Time 6:36 AM CDT 7:42 PM CDT
Civil Twilight 6:08 AM CDT 8:10 PM CDT
Nautical Twilight 5:34 AM CDT 8:44 PM CDT
Astronomical Twilight 4:58 AM CDT 9:19 PM CDT
Moon 1:25 PM CDT 11:40 PM CDT
Length of Visible Light 14h 02m
Length of Day
13h 05m
Tomorrow will be 2m 38s shorter.
Waxing Crescent, 43% of the Moon is Illuminated
Today
Waxing Crescent
Sep 2
First Quarter
Sep 8
Full
Sep 15
Last Quarter
Sep 24
New

Today's Extremes

State Highs State Lows

Community

WunderPhotos

Upload Photos

1,749,367 photos uploaded!

WunderBlogs® & News

Nearby

Snow Depth

Station Depth Elevation
No new snow has been reported.

Earthquake Activity

City Distance Mag. Time & Date
No recent earthquake activity has been reported nearby.
Minimum magnitude displayed is 2.5.

Coastal Water Temperatures

Place Temperature
No Stations Reporting

Nearby Weather Stations